Time;durP1;ratioP1;P1;durP2;ratioP2;P2;SDS_P1;SDS_P2;PMS_P1;PMS_P2;Temp;Humidity;BMP_temperature;BMP_pressure;BME280_temperature;BME280_humidity;BME280_pressure;Samples;Min_cycle;Max_cycle;Signal;HPM_P1;HPM_P2
2023/12/27 00:00:29;;;;;;;16.75;3.85;;;;;;;;;;4988726;28;20416;-73
2023/12/27 00:02:55;;;;;;;21.15;3.72;;;;;;;;;;4978614;28;20085;-73
2023/12/27 00:05:21;;;;;;;19.38;3.17;;;;;;;;;;4996004;28;20057;-73
2023/12/27 00:07:47;;;;;;;22.85;2.92;;;;;;;;;;4995113;28;20042;-73
2023/12/27 00:10:13;;;;;;;15.50;2.88;;;;;;;;;;4996313;28;20051;-73
2023/12/27 00:12:39;;;;;;;12.98;3.17;;;;;;;;;;4995226;28;20077;-73
2023/12/27 00:15:06;;;;;;;13.38;2.60;;;;;;;;;;4995179;28;20066;-73
2023/12/27 00:17:32;;;;;;;22.65;3.63;;;;;;;;;;4995633;28;20038;-73
2023/12/27 00:19:58;;;;;;;19.98;3.08;;;;;;;;;;4994970;28;20137;-73
2023/12/27 00:22:24;;;;;;;15.98;3.53;;;;;;;;;;4989458;28;20044;-73
2023/12/27 00:24:50;;;;;;;21.67;3.60;;;;;;;;;;4995042;28;20125;-73
2023/12/27 00:27:16;;;;;;;13.98;3.38;;;;;;;;;;4995221;28;20042;-73
2023/12/27 00:29:42;;;;;;;16.83;3.50;;;;;;;;;;4995474;28;20053;-73
2023/12/27 00:32:09;;;;;;;15.38;3.35;;;;;;;;;;4994485;28;20117;-73
2023/12/27 00:34:39;;;;;;;19.45;3.97;;;;;;;;;;4994935;28;20121;-73
2023/12/27 00:37:05;;;;;;;17.67;3.47;;;;;;;;;;4978713;28;20047;-73
2023/12/27 00:39:31;;;;;;;14.60;3.08;;;;;;;;;;4995556;28;20051;-73
2023/12/27 00:41:58;;;;;;;18.40;3.22;;;;;;;;;;4994806;28;20100;-72
2023/12/27 00:44:24;;;;;;;12.30;2.97;;;;;;;;;;4994918;28;20525;-73
2023/12/27 00:46:50;;;;;;;15.98;3.33;;;;;;;;;;4992623;28;20050;-73
2023/12/27 00:49:16;;;;;;;16.13;3.40;;;;;;;;;;4993938;28;20052;-72
2023/12/27 00:51:43;;;;;;;20.08;3.72;;;;;;;;;;4977892;28;20136;-73
2023/12/27 00:54:10;;;;;;;15.10;3.47;;;;;;;;;;4977113;28;20096;-72
2023/12/27 00:56:36;;;;;;;20.52;3.72;;;;;;;;;;4993931;28;20092;-72
2023/12/27 00:59:02;;;;;;;16.20;3.80;;;;;;;;;;4977784;28;20484;-73
2023/12/27 01:01:30;;;;;;;13.68;3.53;;;;;;;;;;4987225;28;20054;-72
2023/12/27 01:03:56;;;;;;;17.88;4.00;;;;;;;;;;4976780;28;20046;-73
2023/12/27 01:06:22;;;;;;;15.52;3.97;;;;;;;;;;4988758;28;20038;-73
2023/12/27 01:08:48;;;;;;;21.65;4.55;;;;;;;;;;4985558;28;20038;-72
2023/12/27 01:11:15;;;;;;;16.70;4.82;;;;;;;;;;4984698;28;20042;-72
2023/12/27 01:13:41;;;;;;;18.48;4.72;;;;;;;;;;4993183;28;20042;-72
2023/12/27 01:16:07;;;;;;;16.00;4.15;;;;;;;;;;4993243;28;20055;-72
2023/12/27 01:18:33;;;;;;;19.75;4.30;;;;;;;;;;4993457;28;20054;-72
2023/12/27 01:21:00;;;;;;;18.98;4.22;;;;;;;;;;4954330;28;20105;-73
2023/12/27 01:23:27;;;;;;;15.23;4.00;;;;;;;;;;4985779;28;20074;-72
2023/12/27 01:25:53;;;;;;;19.63;4.35;;;;;;;;;;4989805;28;20047;-73
2023/12/27 01:28:20;;;;;;;15.65;4.57;;;;;;;;;;4985931;28;20081;-72
2023/12/27 01:30:46;;;;;;;17.38;4.72;;;;;;;;;;4988724;28;20078;-73
2023/12/27 01:33:12;;;;;;;25.60;6.07;;;;;;;;;;4988898;28;20050;-72
2023/12/27 01:35:38;;;;;;;17.83;5.28;;;;;;;;;;4993904;28;20097;-73
2023/12/27 01:38:04;;;;;;;21.20;5.82;;;;;;;;;;4994618;28;20488;-72
2023/12/27 01:40:30;;;;;;;18.25;5.05;;;;;;;;;;4973140;28;20429;-72
2023/12/27 01:42:56;;;;;;;18.77;5.10;;;;;;;;;;4993413;28;20050;-72
2023/12/27 01:45:22;;;;;;;18.65;4.35;;;;;;;;;;4994111;28;20138;-72
2023/12/27 01:47:49;;;;;;;15.80;4.60;;;;;;;;;;4989463;28;20129;-72
2023/12/27 01:50:16;;;;;;;18.10;4.30;;;;;;;;;;4974863;28;20410;-72
2023/12/27 01:52:42;;;;;;;14.98;4.35;;;;;;;;;;4978637;28;20047;-72
2023/12/27 01:55:09;;;;;;;18.13;4.47;;;;;;;;;;4975903;28;20046;-72
2023/12/27 01:57:38;;;;;;;17.70;4.70;;;;;;;;;;4990234;28;20043;-72
2023/12/27 02:00:04;;;;;;;15.48;4.43;;;;;;;;;;4993931;28;20048;-72
2023/12/27 02:02:30;;;;;;;18.67;4.45;;;;;;;;;;4993648;28;20046;-72
2023/12/27 02:04:56;;;;;;;24.60;4.90;;;;;;;;;;4993876;28;20493;-72
2023/12/27 02:07:22;;;;;;;18.85;5.07;;;;;;;;;;4976069;28;20434;-72
2023/12/27 02:09:49;;;;;;;21.42;4.90;;;;;;;;;;4993588;28;20065;-72
2023/12/27 02:12:31;;;;;;;21.25;5.13;;;;;;;;;;4994291;28;20050;-72
2023/12/27 02:14:57;;;;;;;16.35;5.00;;;;;;;;;;4993045;28;20061;-72
2023/12/27 02:17:24;;;;;;;20.50;5.75;;;;;;;;;;4976295;28;20050;-72
2023/12/27 02:19:50;;;;;;;17.27;5.35;;;;;;;;;;4993755;28;20117;-72
2023/12/27 02:22:22;;;;;;;21.88;5.80;;;;;;;;;;4992336;28;20093;-72
2023/12/27 02:24:49;;;;;;;20.63;6.30;;;;;;;;;;4993789;28;20096;-72
2023/12/27 02:27:15;;;;;;;20.15;5.38;;;;;;;;;;4993525;28;20411;-72
2023/12/27 02:29:41;;;;;;;21.98;6.18;;;;;;;;;;4992199;28;20089;-72
2023/12/27 02:32:08;;;;;;;24.40;6.00;;;;;;;;;;4979669;28;20046;-72
2023/12/27 02:34:34;;;;;;;20.42;6.32;;;;;;;;;;4981699;28;20122;-72
2023/12/27 02:37:00;;;;;;;18.65;5.97;;;;;;;;;;4991867;28;20061;-72
2023/12/27 02:39:26;;;;;;;21.75;5.75;;;;;;;;;;4992844;28;20042;-72
2023/12/27 02:41:52;;;;;;;23.52;5.90;;;;;;;;;;4992079;28;20047;-72
2023/12/27 02:44:18;;;;;;;18.90;5.93;;;;;;;;;;4993107;28;20404;-72
2023/12/27 02:46:45;;;;;;;19.45;5.88;;;;;;;;;;4991948;28;20076;-72
2023/12/27 02:49:11;;;;;;;17.33;5.60;;;;;;;;;;4955769;28;20081;-72
2023/12/27 02:51:37;;;;;;;20.65;5.68;;;;;;;;;;4974114;28;20043;-73
2023/12/27 02:54:03;;;;;;;19.08;6.35;;;;;;;;;;4984481;28;20046;-72
2023/12/27 02:56:29;;;;;;;18.10;6.35;;;;;;;;;;4985658;28;20579;-72
2023/12/27 02:58:55;;;;;;;16.52;6.25;;;;;;;;;;4982810;28;20057;-72
2023/12/27 03:01:21;;;;;;;19.60;6.53;;;;;;;;;;4984002;28;20050;-72
2023/12/27 03:03:47;;;;;;;15.13;6.50;;;;;;;;;;4978642;28;20046;-72
2023/12/27 03:06:13;;;;;;;17.25;6.40;;;;;;;;;;4984960;28;20906;-72
2023/12/27 03:08:39;;;;;;;21.38;7.13;;;;;;;;;;4984863;28;20050;-72
2023/12/27 03:11:06;;;;;;;21.92;6.50;;;;;;;;;;4985690;28;20046;-72
2023/12/27 03:13:32;;;;;;;18.83;6.68;;;;;;;;;;4983873;28;20053;-72
2023/12/27 03:15:58;;;;;;;17.50;7.00;;;;;;;;;;4983202;28;20053;-72
2023/12/27 03:18:24;;;;;;;19.60;6.85;;;;;;;;;;4985915;28;20042;-71
2023/12/27 03:20:50;;;;;;;23.48;6.78;;;;;;;;;;4982456;28;20400;-72
2023/12/27 03:23:16;;;;;;;16.65;6.88;;;;;;;;;;4981922;28;20034;-72
2023/12/27 03:25:42;;;;;;;19.60;7.00;;;;;;;;;;4985039;28;20046;-71
2023/12/27 03:28:08;;;;;;;20.60;6.47;;;;;;;;;;4983249;28;20143;-72
2023/12/27 03:30:34;;;;;;;17.63;6.30;;;;;;;;;;4985599;28;20156;-72
2023/12/27 03:33:00;;;;;;;20.55;6.88;;;;;;;;;;4965685;28;20049;-72
2023/12/27 03:35:26;;;;;;;17.40;6.30;;;;;;;;;;4982067;28;20038;-72
2023/12/27 03:37:53;;;;;;;19.35;6.75;;;;;;;;;;4983825;28;20570;-72
2023/12/27 03:40:19;;;;;;;17.23;5.93;;;;;;;;;;4984654;28;20043;-72
2023/12/27 03:42:45;;;;;;;14.45;6.03;;;;;;;;;;4987170;28;20069;-72
2023/12/27 03:45:11;;;;;;;13.63;5.90;;;;;;;;;;4987566;28;20054;-72
2023/12/27 03:47:37;;;;;;;15.27;5.65;;;;;;;;;;4986549;28;20076;-72
2023/12/27 03:50:04;;;;;;;17.20;6.55;;;;;;;;;;4984872;28;20074;-72
2023/12/27 03:52:30;;;;;;;17.40;6.30;;;;;;;;;;4986404;28;20384;-72
2023/12/27 03:54:56;;;;;;;18.85;7.05;;;;;;;;;;4990587;28;20108;-72
2023/12/27 03:57:23;;;;;;;20.73;6.38;;;;;;;;;;4978878;28;20133;-72
2023/12/27 03:59:49;;;;;;;17.80;6.13;;;;;;;;;;4995877;28;20407;-72
2023/12/27 04:02:15;;;;;;;27.65;7.00;;;;;;;;;;4995649;28;20507;-72
2023/12/27 04:04:41;;;;;;;26.73;7.30;;;;;;;;;;4994884;28;20436;-72
2023/12/27 04:07:07;;;;;;;15.77;7.22;;;;;;;;;;4995827;28;20125;-72
2023/12/27 04:09:33;;;;;;;19.30;6.88;;;;;;;;;;4995800;28;20072;-72
2023/12/27 04:11:59;;;;;;;20.02;7.10;;;;;;;;;;4995418;28;20128;-72
2023/12/27 04:14:25;;;;;;;28.13;7.75;;;;;;;;;;4996112;28;20050;-72
2023/12/27 04:16:51;;;;;;;14.95;6.45;;;;;;;;;;4994442;28;20054;-72
2023/12/27 04:19:17;;;;;;;21.23;7.65;;;;;;;;;;4995723;28;20050;-72
2023/12/27 04:21:43;;;;;;;19.23;7.18;;;;;;;;;;4978498;28;20443;-72
2023/12/27 04:24:09;;;;;;;18.65;6.85;;;;;;;;;;4962167;28;20050;-72
2023/12/27 04:26:42;;;;;;;18.60;6.70;;;;;;;;;;4995866;28;20117;-72
2023/12/27 04:29:08;;;;;;;21.85;7.60;;;;;;;;;;4987237;28;20052;-72
2023/12/27 04:31:34;;;;;;;18.23;7.25;;;;;;;;;;4985625;28;20105;-72
2023/12/27 04:34:00;;;;;;;17.13;7.45;;;;;;;;;;4983070;28;20451;-72
2023/12/27 04:36:26;;;;;;;17.77;7.40;;;;;;;;;;4970168;28;20034;-72
2023/12/27 04:38:52;;;;;;;17.48;7.57;;;;;;;;;;4986222;28;20050;-72
2023/12/27 04:41:18;;;;;;;14.18;7.25;;;;;;;;;;4967307;28;20046;-72
2023/12/27 04:43:44;;;;;;;30.33;7.80;;;;;;;;;;4983734;28;21096;-72
2023/12/27 04:46:14;;;;;;;21.02;8.55;;;;;;;;;;4987063;28;20049;-72
2023/12/27 04:48:40;;;;;;;22.65;8.50;;;;;;;;;;4984128;28;20045;-72
2023/12/27 04:51:07;;;;;;;22.70;8.90;;;;;;;;;;4984690;28;21090;-72
2023/12/27 04:53:33;;;;;;;19.10;8.40;;;;;;;;;;4966504;28;20090;-72
2023/12/27 04:55:59;;;;;;;18.13;8.80;;;;;;;;;;4986067;28;20042;-72
2023/12/27 04:58:25;;;;;;;17.35;8.70;;;;;;;;;;4986575;28;20566;-72
2023/12/27 05:00:51;;;;;;;18.08;8.10;;;;;;;;;;4987766;28;20173;-72
2023/12/27 05:03:17;;;;;;;19.50;8.77;;;;;;;;;;4986247;28;20034;-73
2023/12/27 05:05:43;;;;;;;20.50;8.98;;;;;;;;;;4986939;28;20049;-72
2023/12/27 05:08:09;;;;;;;16.83;8.20;;;;;;;;;;4985573;28;20788;-72
2023/12/27 05:10:36;;;;;;;21.23;8.82;;;;;;;;;;4988800;28;20108;-72
2023/12/27 05:13:02;;;;;;;23.70;8.98;;;;;;;;;;4964896;28;20097;-72
2023/12/27 05:15:28;;;;;;;17.25;8.75;;;;;;;;;;4985246;28;20054;-72
2023/12/27 05:17:54;;;;;;;15.93;8.50;;;;;;;;;;4953694;28;20050;-72
2023/12/27 05:20:20;;;;;;;19.15;8.95;;;;;;;;;;4984894;28;20042;-72
2023/12/27 05:22:46;;;;;;;15.70;8.35;;;;;;;;;;4978060;28;20054;-72
2023/12/27 05:25:12;;;;;;;18.48;8.95;;;;;;;;;;4992994;28;20042;-71
2023/12/27 05:27:38;;;;;;;18.90;9.13;;;;;;;;;;4989467;28;20043;-72
2023/12/27 05:30:05;;;;;;;21.40;8.88;;;;;;;;;;4980781;28;20479;-71
2023/12/27 05:32:31;;;;;;;19.75;9.18;;;;;;;;;;4986780;28;20492;-72
2023/12/27 05:34:57;;;;;;;19.40;9.75;;;;;;;;;;4992938;28;20054;-72
2023/12/27 05:37:23;;;;;;;19.95;9.48;;;;;;;;;;4986165;28;20041;-72
2023/12/27 05:39:49;;;;;;;19.70;9.23;;;;;;;;;;4993810;28;20074;-72
2023/12/27 05:42:15;;;;;;;14.70;8.20;;;;;;;;;;4993949;28;20038;-72
2023/12/27 05:44:41;;;;;;;19.60;8.88;;;;;;;;;;4993723;28;20034;-72
2023/12/27 05:47:08;;;;;;;26.35;9.40;;;;;;;;;;4993513;28;20042;-72
2023/12/27 05:49:34;;;;;;;20.88;8.65;;;;;;;;;;4976552;28;20050;-72
2023/12/27 05:52:00;;;;;;;21.95;9.30;;;;;;;;;;4993473;28;20042;-72
2023/12/27 05:54:26;;;;;;;23.45;9.40;;;;;;;;;;4994197;28;20134;-72
2023/12/27 05:56:53;;;;;;;21.30;9.80;;;;;;;;;;4976168;28;20392;-72
2023/12/27 05:59:19;;;;;;;20.55;9.70;;;;;;;;;;4993535;28;20053;-72
2023/12/27 06:01:49;;;;;;;22.58;9.77;;;;;;;;;;4993335;28;20106;-72
2023/12/27 06:04:15;;;;;;;20.95;8.85;;;;;;;;;;4976099;28;20050;-72
2023/12/27 06:06:41;;;;;;;27.95;9.90;;;;;;;;;;4993895;28;20073;-72
2023/12/27 06:09:08;;;;;;;26.55;9.13;;;;;;;;;;4987256;28;20496;-72
2023/12/27 06:11:34;;;;;;;28.80;10.40;;;;;;;;;;4993492;28;20042;-72
2023/12/27 06:14:00;;;;;;;27.05;10.20;;;;;;;;;;4976179;28;20506;-72
2023/12/27 06:16:26;;;;;;;25.23;10.10;;;;;;;;;;4994063;28;20049;-72
2023/12/27 06:18:54;;;;;;;18.65;9.77;;;;;;;;;;4976616;28;20058;-72
2023/12/27 06:21:20;;;;;;;28.05;11.57;;;;;;;;;;4993779;28;20050;-72
2023/12/27 06:23:47;;;;;;;29.02;12.38;;;;;;;;;;4993742;28;20054;-72
2023/12/27 06:26:13;;;;;;;25.80;11.13;;;;;;;;;;4993774;28;20081;-72
2023/12/27 06:28:39;;;;;;;24.05;11.48;;;;;;;;;;4991379;28;20069;-72
2023/12/27 06:31:05;;;;;;;33.55;12.63;;;;;;;;;;4983085;28;20531;-72
2023/12/27 06:33:31;;;;;;;25.95;11.48;;;;;;;;;;4982788;28;20416;-72
2023/12/27 06:35:57;;;;;;;24.45;12.05;;;;;;;;;;4967753;28;20042;-72
2023/12/27 06:38:23;;;;;;;23.90;12.35;;;;;;;;;;4983127;28;20066;-72
2023/12/27 06:40:49;;;;;;;30.95;13.27;;;;;;;;;;4983705;28;20464;-72
2023/12/27 06:43:15;;;;;;;26.20;12.73;;;;;;;;;;4979822;28;20080;-72
2023/12/27 06:45:41;;;;;;;26.67;14.30;;;;;;;;;;4982921;28;20100;-72
2023/12/27 06:48:07;;;;;;;27.08;13.45;;;;;;;;;;4984732;28;20038;-72
2023/12/27 06:50:33;;;;;;;26.30;13.43;;;;;;;;;;4985350;28;20581;-72
2023/12/27 06:52:59;;;;;;;36.55;15.35;;;;;;;;;;4968778;28;20082;-72
2023/12/27 06:55:25;;;;;;;27.45;14.57;;;;;;;;;;4983632;28;20051;-72
2023/12/27 06:57:51;;;;;;;37.85;15.88;;;;;;;;;;4981915;28;20058;-72
2023/12/27 07:00:17;;;;;;;34.17;16.83;;;;;;;;;;4984802;28;20053;-72
2023/12/27 07:02:43;;;;;;;34.13;15.45;;;;;;;;;;4990455;28;20043;-72
2023/12/27 07:05:11;;;;;;;32.28;15.05;;;;;;;;;;4985341;28;20043;-72
2023/12/27 07:07:37;;;;;;;31.63;15.38;;;;;;;;;;4991500;28;20125;-72
2023/12/27 07:10:04;;;;;;;31.55;15.65;;;;;;;;;;4992451;28;20133;-72
2023/12/27 07:12:30;;;;;;;29.30;15.32;;;;;;;;;;4992478;28;20047;-72
2023/12/27 07:14:56;;;;;;;36.20;16.00;;;;;;;;;;4975072;28;20062;-72
2023/12/27 07:17:23;;;;;;;35.05;15.77;;;;;;;;;;4996170;28;20507;-72
2023/12/27 07:19:49;;;;;;;33.83;15.52;;;;;;;;;;4979601;28;20129;-72
2023/12/27 07:22:15;;;;;;;37.58;16.15;;;;;;;;;;4996405;28;20049;-72
2023/12/27 07:24:41;;;;;;;37.55;15.13;;;;;;;;;;4996425;28;20058;-72
2023/12/27 07:27:09;;;;;;;34.28;15.90;;;;;;;;;;4995566;28;20400;-72
2023/12/27 07:29:37;;;;;;;32.17;14.77;;;;;;;;;;4996696;28;20132;-72
2023/12/27 07:32:06;;;;;;;35.83;15.10;;;;;;;;;;4995934;28;20570;-72
2023/12/27 07:34:35;;;;;;;26.15;13.05;;;;;;;;;;4991592;28;20069;-72
2023/12/27 07:37:01;;;;;;;26.85;12.85;;;;;;;;;;4996051;28;20054;-72
2023/12/27 07:39:27;;;;;;;32.28;13.02;;;;;;;;;;4996605;28;20042;-72
2023/12/27 07:41:53;;;;;;;32.03;13.30;;;;;;;;;;4995975;28;20061;-72
2023/12/27 07:44:19;;;;;;;28.38;13.35;;;;;;;;;;4989950;28;20043;-72
2023/12/27 07:46:45;;;;;;;29.38;13.02;;;;;;;;;;4986445;28;20077;-72
2023/12/27 07:49:11;;;;;;;32.92;13.57;;;;;;;;;;4987970;28;20038;-72
2023/12/27 07:51:37;;;;;;;25.55;12.43;;;;;;;;;;4990380;28;20149;-72
2023/12/27 07:54:03;;;;;;;27.33;11.80;;;;;;;;;;4973933;28;20058;-72
2023/12/27 07:56:30;;;;;;;23.40;11.23;;;;;;;;;;4992120;28;20038;-72
2023/12/27 07:58:56;;;;;;;30.63;11.30;;;;;;;;;;4994691;28;20077;-72
2023/12/27 08:01:23;;;;;;;23.27;11.25;;;;;;;;;;4970731;28;20059;-72
2023/12/27 08:03:49;;;;;;;27.48;10.75;;;;;;;;;;4989907;28;20162;-72
2023/12/27 08:06:15;;;;;;;29.15;10.93;;;;;;;;;;4990724;28;20070;-72
2023/12/27 08:08:41;;;;;;;28.23;11.10;;;;;;;;;;4985743;28;20556;-72
2023/12/27 08:11:08;;;;;;;24.38;10.43;;;;;;;;;;4986020;28;20094;-72
2023/12/27 08:13:37;;;;;;;25.83;9.95;;;;;;;;;;4974618;28;20045;-72
2023/12/27 08:16:03;;;;;;;21.05;10.02;;;;;;;;;;4994650;28;20085;-72
2023/12/27 08:18:29;;;;;;;25.55;10.20;;;;;;;;;;4994458;28;20544;-72
2023/12/27 08:20:56;;;;;;;24.13;9.95;;;;;;;;;;4993499;28;20137;-72
2023/12/27 08:23:22;;;;;;;27.10;9.32;;;;;;;;;;4994611;28;20453;-72
2023/12/27 08:25:48;;;;;;;25.73;9.65;;;;;;;;;;4994838;28;20065;-72
2023/12/27 08:28:14;;;;;;;27.35;10.60;;;;;;;;;;4988068;28;20069;-72
2023/12/27 08:30:41;;;;;;;28.05;10.10;;;;;;;;;;4983856;28;20068;-72
2023/12/27 08:33:07;;;;;;;25.92;9.68;;;;;;;;;;4995259;28;20047;-72
2023/12/27 08:35:37;;;;;;;24.42;8.88;;;;;;;;;;4993700;28;20042;-72
2023/12/27 08:38:08;;;;;;;21.95;9.98;;;;;;;;;;4975430;28;20078;-72
2023/12/27 08:40:34;;;;;;;;;;;;;;;;;;4992008;28;20042;-72
2023/12/27 08:43:00;;;;;;;25.70;9.18;;;;;;;;;;4992432;28;19928;-71
2023/12/27 08:45:26;;;;;;;20.67;7.82;;;;;;;;;;4991096;28;20074;-70
2023/12/27 08:47:52;;;;;;;23.77;8.50;;;;;;;;;;4989827;28;20050;-72
2023/12/27 08:50:18;;;;;;;21.77;7.55;;;;;;;;;;4989874;28;20054;-71
2023/12/27 08:52:45;;;;;;;19.70;7.60;;;;;;;;;;4991353;28;20640;-72
2023/12/27 08:55:12;;;;;;;16.30;7.20;;;;;;;;;;4960598;28;20042;-72
2023/12/27 08:57:38;;;;;;;25.08;7.60;;;;;;;;;;4985531;28;20053;-72
2023/12/27 09:00:10;;;;;;;23.95;7.70;;;;;;;;;;4994732;28;20054;-71
2023/12/27 09:02:39;;;;;;;28.15;8.30;;;;;;;;;;4994728;28;20050;-71
2023/12/27 09:05:06;;;;;;;21.60;8.30;;;;;;;;;;4994556;28;20050;-71
2023/12/27 09:07:32;;;;;;;22.98;7.40;;;;;;;;;;4994544;28;20064;-71
2023/12/27 09:09:58;;;;;;;23.77;7.65;;;;;;;;;;4993938;28;20061;-72
2023/12/27 09:12:25;;;;;;;19.55;8.35;;;;;;;;;;4992873;28;20048;-72
2023/12/27 09:14:51;;;;;;;27.92;8.50;;;;;;;;;;4975283;28;20443;-72
2023/12/27 09:17:18;;;;;;;20.73;8.18;;;;;;;;;;4994339;28;20062;-72
2023/12/27 09:19:44;;;;;;;20.52;8.32;;;;;;;;;;4992372;28;20420;-72
2023/12/27 09:22:10;;;;;;;20.23;8.27;;;;;;;;;;4993279;28;20050;-72
2023/12/27 09:24:36;;;;;;;22.55;8.60;;;;;;;;;;4994085;28;20054;-72
2023/12/27 09:27:03;;;;;;;20.08;8.25;;;;;;;;;;4992380;28;20054;-72
2023/12/27 09:29:30;;;;;;;22.77;8.68;;;;;;;;;;4991912;28;20454;-72
2023/12/27 09:31:56;;;;;;;25.63;9.27;;;;;;;;;;4993958;28;20121;-72
2023/12/27 09:34:23;;;;;;;22.42;8.65;;;;;;;;;;4994004;28;20050;-72
2023/12/27 09:36:49;;;;;;;26.35;9.10;;;;;;;;;;4993190;28;20050;-72
2023/12/27 09:39:15;;;;;;;20.60;8.55;;;;;;;;;;4993818;28;20396;-72
2023/12/27 09:41:41;;;;;;;29.45;10.07;;;;;;;;;;4992548;28;20518;-72
2023/12/27 09:44:08;;;;;;;24.67;10.15;;;;;;;;;;4993203;28;20089;-72
2023/12/27 09:46:35;;;;;;;19.05;9.15;;;;;;;;;;4973662;28;20427;-72
2023/12/27 09:49:01;;;;;;;23.45;9.88;;;;;;;;;;4984014;28;20034;-72
2023/12/27 09:51:27;;;;;;;22.73;9.82;;;;;;;;;;4992505;28;20487;-72
2023/12/27 09:53:53;;;;;;;23.05;10.20;;;;;;;;;;4993940;28;20427;-71
2023/12/27 09:56:19;;;;;;;26.00;9.93;;;;;;;;;;4993524;28;20093;-72
2023/12/27 09:58:45;;;;;;;20.30;9.50;;;;;;;;;;4993118;28;20057;-72
2023/12/27 10:01:12;;;;;;;25.05;10.27;;;;;;;;;;4990857;28;20054;-72
2023/12/27 10:03:42;;;;;;;19.80;10.25;;;;;;;;;;4959043;28;20042;-72
2023/12/27 10:06:13;;;;;;;22.83;9.68;;;;;;;;;;4992000;28;20381;-72
2023/12/27 10:08:40;;;;;;;24.23;10.00;;;;;;;;;;4982939;28;20051;-72
2023/12/27 10:11:08;;;;;;;21.52;9.77;;;;;;;;;;4982170;28;20034;-72
2023/12/27 10:13:36;;;;;;;22.83;9.55;;;;;;;;;;4970896;28;20050;-72
2023/12/27 10:16:04;;;;;;;22.45;10.20;;;;;;;;;;4991981;28;20050;-72
2023/12/27 10:18:31;;;;;;;23.75;9.60;;;;;;;;;;4974561;28;20061;-72
2023/12/27 10:20:58;;;;;;;23.45;10.07;;;;;;;;;;4992162;28;20089;-72
2023/12/27 10:23:24;;;;;;;22.05;10.20;;;;;;;;;;4991675;28;20057;-72
2023/12/27 10:25:53;;;;;;;25.70;10.45;;;;;;;;;;4993332;28;20054;-72
2023/12/27 10:28:24;;;;;;;21.80;9.32;;;;;;;;;;4991962;28;20057;-72
2023/12/27 10:30:51;;;;;;;21.45;8.95;;;;;;;;;;4992310;28;20100;-72
2023/12/27 10:33:19;;;;;;;19.20;8.65;;;;;;;;;;4985203;28;20073;-72
2023/12/27 10:35:45;;;;;;;22.90;8.02;;;;;;;;;;4987414;28;20502;-72
2023/12/27 10:38:11;;;;;;;22.05;8.07;;;;;;;;;;4987348;28;20046;-72
2023/12/27 10:40:40;;;;;;;20.17;8.30;;;;;;;;;;4988699;28;20092;-72
2023/12/27 10:43:06;;;;;;;17.90;7.75;;;;;;;;;;4951366;28;20457;-72
2023/12/27 10:45:33;;;;;;;22.67;8.60;;;;;;;;;;4992799;28;20046;-72
2023/12/27 10:47:59;;;;;;;23.67;8.07;;;;;;;;;;4991423;28;20058;-72
2023/12/27 10:50:29;;;;;;;20.10;8.48;;;;;;;;;;4989551;28;20091;-72
2023/12/27 10:53:03;;;;;;;21.33;8.90;;;;;;;;;;4988963;28;20046;-72
2023/12/27 10:55:29;;;;;;;27.17;9.05;;;;;;;;;;4994159;28;20046;-72
2023/12/27 10:57:56;;;;;;;22.23;8.35;;;;;;;;;;4979826;28;20051;-72
2023/12/27 11:00:23;;;;;;;17.38;9.05;;;;;;;;;;4977637;28;20047;-72
2023/12/27 11:02:50;;;;;;;20.58;9.15;;;;;;;;;;4991475;28;20092;-72
2023/12/27 11:05:17;;;;;;;17.15;9.20;;;;;;;;;;4995867;28;20046;-72
2023/12/27 11:07:46;;;;;;;23.23;10.43;;;;;;;;;;4978677;28;20042;-71
2023/12/27 11:10:15;;;;;;;22.42;9.38;;;;;;;;;;4992112;28;20038;-72
2023/12/27 11:12:43;;;;;;;17.67;9.93;;;;;;;;;;4995416;28;20058;-72
2023/12/27 11:15:10;;;;;;;24.80;11.13;;;;;;;;;;4996239;28;20062;-72
2023/12/27 11:17:37;;;;;;;25.27;10.95;;;;;;;;;;4978290;28;20049;-72
2023/12/27 11:20:06;;;;;;;26.92;11.35;;;;;;;;;;4990022;28;20045;-70
2023/12/27 11:22:33;;;;;;;24.90;10.52;;;;;;;;;;4996131;28;20063;-71
2023/12/27 11:25:00;;;;;;;22.15;11.35;;;;;;;;;;4993896;28;20489;-72
2023/12/27 11:27:26;;;;;;;27.30;11.50;;;;;;;;;;4990511;28;20054;-72
2023/12/27 11:29:52;;;;;;;24.67;11.57;;;;;;;;;;4995996;28;20046;-72
2023/12/27 11:32:19;;;;;;;23.38;10.88;;;;;;;;;;4996196;28;20065;-72
2023/12/27 11:34:45;;;;;;;22.98;10.95;;;;;;;;;;4990108;28;20054;-72
2023/12/27 11:37:16;;;;;;;25.30;11.50;;;;;;;;;;4996046;28;20057;-72
2023/12/27 11:39:48;;;;;;;25.25;9.77;;;;;;;;;;4995719;28;20376;-72
2023/12/27 11:42:17;;;;;;;25.95;11.85;;;;;;;;;;4993506;28;20053;-72
2023/12/27 11:44:53;;;;;;;24.15;11.15;;;;;;;;;;4995771;28;20492;-72
2023/12/27 11:47:23;;;;;;;30.52;12.32;;;;;;;;;;4995832;28;20093;-72
2023/12/27 11:50:16;;;;;;;26.60;11.32;;;;;;;;;;4995030;28;20049;-72
2023/12/27 11:52:50;;;;;;;29.90;12.98;;;;;;;;;;4994937;28;20046;-72
2023/12/27 11:55:23;;;;;;;32.45;12.85;;;;;;;;;;4994959;28;20099;-72
2023/12/27 11:57:58;;;;;;;28.73;12.73;;;;;;;;;;4985016;28;20132;-72
2023/12/27 12:00:26;;;;;;;38.83;13.55;;;;;;;;;;4988492;28;20385;-72
2023/12/27 12:02:57;;;;;;;34.20;13.98;;;;;;;;;;4982144;28;20563;-72
2023/12/27 12:05:39;;;;;;;25.10;11.95;;;;;;;;;;4985009;28;20495;-72
2023/12/27 12:08:25;;;;;;;32.13;12.77;;;;;;;;;;4991861;28;20054;-72
2023/12/27 12:11:05;;;;;;;27.98;13.38;;;;;;;;;;4991392;28;20050;-72
2023/12/27 12:13:31;;;;;;;27.50;13.73;;;;;;;;;;4961695;28;20062;-72
2023/12/27 12:15:57;;;;;;;28.77;13.88;;;;;;;;;;4991168;28;20058;-72
2023/12/27 12:18:24;;;;;;;28.75;15.00;;;;;;;;;;4992278;28;20058;-72
2023/12/27 12:20:50;;;;;;;33.22;14.00;;;;;;;;;;4991753;28;20053;-72
2023/12/27 12:23:17;;;;;;;31.90;14.80;;;;;;;;;;4994224;28;20104;-72
2023/12/27 12:25:44;;;;;;;32.45;15.55;;;;;;;;;;4995155;28;20388;-72
2023/12/27 12:28:10;;;;;;;33.08;15.68;;;;;;;;;;4995340;28;20088;-72
2023/12/27 12:30:37;;;;;;;30.45;15.20;;;;;;;;;;4992597;28;20054;-72
2023/12/27 12:33:06;;;;;;;29.30;14.70;;;;;;;;;;4988790;28;20046;-72
2023/12/27 12:35:32;;;;;;;28.98;14.75;;;;;;;;;;4973486;28;20038;-72
2023/12/27 12:38:00;;;;;;;31.90;14.48;;;;;;;;;;4991097;28;20468;-72
2023/12/27 12:40:26;;;;;;;31.27;15.95;;;;;;;;;;4979524;28;20050;-72
2023/12/27 12:42:52;;;;;;;25.55;14.52;;;;;;;;;;4988349;28;20046;-72
2023/12/27 12:45:19;;;;;;;26.95;15.77;;;;;;;;;;4994433;28;20057;-72
2023/12/27 12:47:45;;;;;;;27.92;15.38;;;;;;;;;;4994531;28;20101;-72
2023/12/27 12:50:12;;;;;;;28.00;16.25;;;;;;;;;;4977008;28;20042;-72
2023/12/27 12:52:38;;;;;;;29.83;17.08;;;;;;;;;;4992790;28;20047;-72
2023/12/27 12:55:04;;;;;;;25.67;16.50;;;;;;;;;;4992505;28;20142;-72
2023/12/27 12:57:31;;;;;;;26.27;16.08;;;;;;;;;;4991638;28;20057;-72
2023/12/27 12:59:57;;;;;;;27.98;17.80;;;;;;;;;;4991777;28;20562;-72
2023/12/27 13:02:23;;;;;;;26.90;16.67;;;;;;;;;;4971733;28;20047;-72
2023/12/27 13:04:53;;;;;;;30.25;17.88;;;;;;;;;;4994183;28;20105;-72
2023/12/27 13:07:20;;;;;;;32.05;19.10;;;;;;;;;;4992958;28;20121;-72
2023/12/27 13:09:57;;;;;;;30.50;18.60;;;;;;;;;;4976378;28;20050;-72
2023/12/27 13:12:24;;;;;;;32.20;18.73;;;;;;;;;;4990741;28;20116;-72
2023/12/27 13:14:51;;;;;;;34.58;19.65;;;;;;;;;;4993099;28;20041;-75
2023/12/27 13:17:17;;;;;;;34.72;21.13;;;;;;;;;;4994065;28;20061;-72
2023/12/27 13:19:43;;;;;;;31.95;21.33;;;;;;;;;;4983958;28;20475;-72
2023/12/27 13:22:10;;;;;;;33.25;20.33;;;;;;;;;;4975533;28;20050;-72
2023/12/27 13:24:36;;;;;;;34.80;21.75;;;;;;;;;;4993923;28;20050;-72
2023/12/27 13:27:02;;;;;;;34.08;21.73;;;;;;;;;;4990616;28;20089;-72
2023/12/27 13:29:28;;;;;;;32.72;21.48;;;;;;;;;;4992658;28;20050;-72
2023/12/27 13:31:54;;;;;;;36.53;20.73;;;;;;;;;;4993558;28;20053;-72
2023/12/27 13:34:20;;;;;;;32.33;20.92;;;;;;;;;;4994055;28;20047;-72
2023/12/27 13:36:46;;;;;;;38.83;22.30;;;;;;;;;;4959649;28;20657;-72
2023/12/27 13:39:14;;;;;;;32.67;21.63;;;;;;;;;;4993525;28;20054;-72
2023/12/27 13:41:40;;;;;;;35.63;21.45;;;;;;;;;;4989502;28;20455;-72
2023/12/27 13:44:06;;;;;;;34.63;21.83;;;;;;;;;;4990710;28;20118;-72
2023/12/27 13:46:33;;;;;;;34.25;22.35;;;;;;;;;;4992377;28;20058;-72
2023/12/27 13:48:59;;;;;;;35.50;21.73;;;;;;;;;;4993983;28;20053;-72
2023/12/27 13:51:26;;;;;;;31.60;22.02;;;;;;;;;;4993747;28;20038;-72
2023/12/27 13:53:52;;;;;;;35.75;21.75;;;;;;;;;;4992610;28;20096;-72
2023/12/27 13:56:19;;;;;;;34.90;22.67;;;;;;;;;;4991959;28;20055;-72
2023/12/27 13:58:48;;;;;;;36.13;20.63;;;;;;;;;;4981765;28;20093;-72
2023/12/27 14:01:14;;;;;;;33.10;21.75;;;;;;;;;;4984205;28;20045;-72
2023/12/27 14:03:41;;;;;;;33.00;21.30;;;;;;;;;;4974950;28;20042;-72
2023/12/27 14:06:07;;;;;;;33.45;20.92;;;;;;;;;;4993164;28;20060;-72
2023/12/27 14:08:33;;;;;;;32.92;20.52;;;;;;;;;;4992970;28;20050;-72
2023/12/27 14:11:00;;;;;;;33.00;19.48;;;;;;;;;;4990124;28;20050;-72
2023/12/27 14:13:26;;;;;;;31.02;19.20;;;;;;;;;;4989971;28;20042;-72
2023/12/27 14:15:52;;;;;;;36.28;20.42;;;;;;;;;;4993089;28;20108;-72
2023/12/27 14:18:18;;;;;;;32.40;20.25;;;;;;;;;;4993225;28;20073;-72
2023/12/27 14:20:44;;;;;;;34.80;20.83;;;;;;;;;;4993386;28;20042;-72
2023/12/27 14:23:10;;;;;;;30.38;20.60;;;;;;;;;;4993345;28;20100;-72